Terminal Aerodrome Forecast
Issued by NWS Wilmington, OH

Current Version | Previous Version | Graphics & Text | Print | Product List | Glossary On
Versions: 1 2 3 4 5 6 7 8 9 10 11 12 13 14 15 16 17 18 19 20 21 22 23 24 25 26
000
FTUS41 KILN 031700 RRA
TAFILN
TAF
KILN 031744Z 0318/0418 19013G22KT 3SM -RA BR OVC009
      TEMPO 0318/0322 1 1/2SM -RA BR OVC006
     FM040300 28012KT 2SM -RA BR OVC004
     FM041300 32012KT 1 1/2SM -SN BR OVC006=

USA.gov is the U.S. government's official web portal to all federal, state and local government web resources and services.